sensor_id;sensor_type;location;lat;lon;timestamp;temperature;humidity
23703;DHT22;12030;50.376;8.762;2022-10-16T00:00:34;15.30;99.90
23703;DHT22;12030;50.376;8.762;2022-10-16T00:03:01;15.30;99.90
23703;DHT22;12030;50.376;8.762;2022-10-16T00:05:27;15.20;99.90
23703;DHT22;12030;50.376;8.762;2022-10-16T00:07:53;15.20;99.90
23703;DHT22;12030;50.376;8.762;2022-10-16T00:10:18;15.20;99.90
23703;DHT22;12030;50.376;8.762;2022-10-16T00:12:44;15.10;99.90
23703;DHT22;12030;50.376;8.762;2022-10-16T00:15:09;15.10;99.90
23703;DHT22;12030;50.376;8.762;2022-10-16T00:17:35;15.20;99.90
23703;DHT22;12030;50.376;8.762;2022-10-16T00:20:00;15.10;99.90
23703;DHT22;12030;50.376;8.762;2022-10-16T00:22:26;15.10;99.90
23703;DHT22;12030;50.376;8.762;2022-10-16T00:24:52;15.10;99.90
23703;DHT22;12030;50.376;8.762;2022-10-16T00:27:17;15.10;99.90
23703;DHT22;12030;50.376;8.762;2022-10-16T00:29:43;15.10;99.90
23703;DHT22;12030;50.376;8.762;2022-10-16T00:32:08;15.10;99.90
23703;DHT22;12030;50.376;8.762;2022-10-16T00:34:34;15.10;99.90
23703;DHT22;12030;50.376;8.762;2022-10-16T00:37:00;15.10;99.90
23703;DHT22;12030;50.376;8.762;2022-10-16T00:39:25;15.10;99.90
23703;DHT22;12030;50.376;8.762;2022-10-16T00:41:51;15.10;99.90
23703;DHT22;12030;50.376;8.762;2022-10-16T00:44:43;15.10;99.90
23703;DHT22;12030;50.376;8.762;2022-10-16T00:47:11;15.00;99.90
23703;DHT22;12030;50.376;8.762;2022-10-16T00:49:38;15.00;99.90
23703;DHT22;12030;50.376;8.762;2022-10-16T00:52:04;15.00;99.90
23703;DHT22;12030;50.376;8.762;2022-10-16T00:54:32;15.00;99.90
23703;DHT22;12030;50.376;8.762;2022-10-16T00:57:00;15.00;99.90
23703;DHT22;12030;50.376;8.762;2022-10-16T01:01:54;15.00;99.90
23703;DHT22;12030;50.376;8.762;2022-10-16T01:04:20;15.00;99.90
23703;DHT22;12030;50.376;8.762;2022-10-16T01:13:06;15.00;99.90
23703;DHT22;12030;50.376;8.762;2022-10-16T01:15:47;15.00;99.90
23703;DHT22;12030;50.376;8.762;2022-10-16T01:18:18;15.00;99.90
23703;DHT22;12030;50.376;8.762;2022-10-16T01:20:50;15.00;99.90
23703;DHT22;12030;50.376;8.762;2022-10-16T01:23:36;15.00;99.90
23703;DHT22;12030;50.376;8.762;2022-10-16T01:29:13;15.10;99.90
23703;DHT22;12030;50.376;8.762;2022-10-16T01:31:42;15.10;99.90
23703;DHT22;12030;50.376;8.762;2022-10-16T01:34:15;15.10;99.90
23703;DHT22;12030;50.376;8.762;2022-10-16T01:36:46;15.10;99.90
23703;DHT22;12030;50.376;8.762;2022-10-16T01:39:14;15.10;99.90
23703;DHT22;12030;50.376;8.762;2022-10-16T01:41:45;15.20;99.90
23703;DHT22;12030;50.376;8.762;2022-10-16T01:44:29;15.20;99.90
23703;DHT22;12030;50.376;8.762;2022-10-16T01:46:56;15.20;99.90
23703;DHT22;12030;50.376;8.762;2022-10-16T01:49:25;15.20;99.90
23703;DHT22;12030;50.376;8.762;2022-10-16T01:51:55;15.30;99.90
23703;DHT22;12030;50.376;8.762;2022-10-16T01:54:23;15.30;99.90
23703;DHT22;12030;50.376;8.762;2022-10-16T01:56:51;15.30;99.90
23703;DHT22;12030;50.376;8.762;2022-10-16T01:59:20;15.30;99.90
23703;DHT22;12030;50.376;8.762;2022-10-16T02:01:50;15.40;99.90
23703;DHT22;12030;50.376;8.762;2022-10-16T02:04:24;15.40;99.90
23703;DHT22;12030;50.376;8.762;2022-10-16T02:06:53;15.40;99.90
23703;DHT22;12030;50.376;8.762;2022-10-16T02:09:19;15.40;99.90
23703;DHT22;12030;50.376;8.762;2022-10-16T02:11:45;15.40;99.90
23703;DHT22;12030;50.376;8.762;2022-10-16T02:14:11;15.40;99.90
23703;DHT22;12030;50.376;8.762;2022-10-16T02:16:43;15.40;99.90
23703;DHT22;12030;50.376;8.762;2022-10-16T02:19:09;15.40;99.90
23703;DHT22;12030;50.376;8.762;2022-10-16T02:21:57;15.50;99.90
23703;DHT22;12030;50.376;8.762;2022-10-16T02:24:39;15.40;99.90
23703;DHT22;12030;50.376;8.762;2022-10-16T02:29:42;15.50;99.90
23703;DHT22;12030;50.376;8.762;2022-10-16T02:32:17;15.40;99.90
23703;DHT22;12030;50.376;8.762;2022-10-16T02:34:46;15.50;99.90
23703;DHT22;12030;50.376;8.762;2022-10-16T02:37:13;15.50;99.90
23703;DHT22;12030;50.376;8.762;2022-10-16T02:39:40;15.50;99.90
23703;DHT22;12030;50.376;8.762;2022-10-16T02:42:13;15.50;99.90
23703;DHT22;12030;50.376;8.762;2022-10-16T02:44:39;15.50;99.90
23703;DHT22;12030;50.376;8.762;2022-10-16T02:47:05;15.50;99.90
23703;DHT22;12030;50.376;8.762;2022-10-16T02:49:30;15.50;99.90
23703;DHT22;12030;50.376;8.762;2022-10-16T02:51:56;15.50;99.90
23703;DHT22;12030;50.376;8.762;2022-10-16T02:54:21;15.50;99.90
23703;DHT22;12030;50.376;8.762;2022-10-16T02:56:47;15.50;99.90
23703;DHT22;12030;50.376;8.762;2022-10-16T02:59:12;15.60;99.90
23703;DHT22;12030;50.376;8.762;2022-10-16T03:01:38;15.60;99.90
23703;DHT22;12030;50.376;8.762;2022-10-16T03:04:04;15.60;99.90
23703;DHT22;12030;50.376;8.762;2022-10-16T03:06:29;15.60;99.90
23703;DHT22;12030;50.376;8.762;2022-10-16T03:08:55;15.70;99.90
23703;DHT22;12030;50.376;8.762;2022-10-16T03:11:20;15.70;99.90
23703;DHT22;12030;50.376;8.762;2022-10-16T03:13:46;15.70;99.90
23703;DHT22;12030;50.376;8.762;2022-10-16T03:16:11;15.70;99.90
23703;DHT22;12030;50.376;8.762;2022-10-16T03:18:37;15.70;99.90
23703;DHT22;12030;50.376;8.762;2022-10-16T03:21:02;15.70;99.90
23703;DHT22;12030;50.376;8.762;2022-10-16T03:23:28;15.70;99.90
23703;DHT22;12030;50.376;8.762;2022-10-16T03:25:54;15.70;99.90
23703;DHT22;12030;50.376;8.762;2022-10-16T03:28:19;15.70;99.90
23703;DHT22;12030;50.376;8.762;2022-10-16T03:30:45;15.80;99.90
23703;DHT22;12030;50.376;8.762;2022-10-16T03:33:10;15.70;99.90
23703;DHT22;12030;50.376;8.762;2022-10-16T03:35:36;15.70;99.90
23703;DHT22;12030;50.376;8.762;2022-10-16T03:38:02;15.70;99.90
23703;DHT22;12030;50.376;8.762;2022-10-16T03:40:27;15.60;99.90
23703;DHT22;12030;50.376;8.762;2022-10-16T03:42:53;15.40;99.90
23703;DHT22;12030;50.376;8.762;2022-10-16T03:45:22;15.30;99.90
23703;DHT22;12030;50.376;8.762;2022-10-16T03:47:48;15.20;99.90
23703;DHT22;12030;50.376;8.762;2022-10-16T03:50:13;15.10;99.90
23703;DHT22;12030;50.376;8.762;2022-10-16T03:52:39;15.00;99.90
23703;DHT22;12030;50.376;8.762;2022-10-16T03:55:05;15.00;99.90
23703;DHT22;12030;50.376;8.762;2022-10-16T03:57:31;14.90;99.90
23703;DHT22;12030;50.376;8.762;2022-10-16T03:59:56;14.90;99.90
23703;DHT22;12030;50.376;8.762;2022-10-16T04:02:22;14.90;99.90
23703;DHT22;12030;50.376;8.762;2022-10-16T04:04:47;15.00;99.90
23703;DHT22;12030;50.376;8.762;2022-10-16T04:07:13;15.00;99.90
23703;DHT22;12030;50.376;8.762;2022-10-16T04:09:38;15.10;99.90
23703;DHT22;12030;50.376;8.762;2022-10-16T04:12:04;15.10;99.90
23703;DHT22;12030;50.376;8.762;2022-10-16T04:14:29;15.10;99.90
23703;DHT22;12030;50.376;8.762;2022-10-16T04:16:55;15.10;99.90
23703;DHT22;12030;50.376;8.762;2022-10-16T04:19:20;15.10;99.90
23703;DHT22;12030;50.376;8.762;2022-10-16T04:21:46;15.10;99.90
23703;DHT22;12030;50.376;8.762;2022-10-16T04:24:11;15.20;99.90
23703;DHT22;12030;50.376;8.762;2022-10-16T04:26:38;15.30;99.90
23703;DHT22;12030;50.376;8.762;2022-10-16T04:29:03;15.30;99.90
23703;DHT22;12030;50.376;8.762;2022-10-16T04:31:29;15.30;99.90
23703;DHT22;12030;50.376;8.762;2022-10-16T04:33:54;15.30;99.90
23703;DHT22;12030;50.376;8.762;2022-10-16T04:36:20;15.40;99.90
23703;DHT22;12030;50.376;8.762;2022-10-16T04:38:46;15.40;99.90
23703;DHT22;12030;50.376;8.762;2022-10-16T04:41:11;15.40;99.90
23703;DHT22;12030;50.376;8.762;2022-10-16T04:43:37;15.40;99.90
23703;DHT22;12030;50.376;8.762;2022-10-16T04:46:03;15.40;99.90
23703;DHT22;12030;50.376;8.762;2022-10-16T04:48:30;15.40;99.90
23703;DHT22;12030;50.376;8.762;2022-10-16T04:50:55;15.50;99.90
23703;DHT22;12030;50.376;8.762;2022-10-16T04:53:21;15.50;99.90
23703;DHT22;12030;50.376;8.762;2022-10-16T04:55:47;15.50;99.90
23703;DHT22;12030;50.376;8.762;2022-10-16T04:58:13;15.50;99.90
23703;DHT22;12030;50.376;8.762;2022-10-16T05:00:38;15.60;99.90
23703;DHT22;12030;50.376;8.762;2022-10-16T05:03:04;15.50;99.90
23703;DHT22;12030;50.376;8.762;2022-10-16T05:05:33;15.50;99.90
23703;DHT22;12030;50.376;8.762;2022-10-16T05:07:58;15.50;99.90
23703;DHT22;12030;50.376;8.762;2022-10-16T05:10:24;15.50;99.90
23703;DHT22;12030;50.376;8.762;2022-10-16T05:12:49;15.50;99.90
23703;DHT22;12030;50.376;8.762;2022-10-16T05:15:16;15.50;99.90
23703;DHT22;12030;50.376;8.762;2022-10-16T05:17:42;15.50;99.90
23703;DHT22;12030;50.376;8.762;2022-10-16T05:20:08;15.50;99.90
23703;DHT22;12030;50.376;8.762;2022-10-16T05:22:33;15.50;99.90
23703;DHT22;12030;50.376;8.762;2022-10-16T05:24:59;15.50;99.90
23703;DHT22;12030;50.376;8.762;2022-10-16T05:27:24;15.50;99.90
23703;DHT22;12030;50.376;8.762;2022-10-16T05:29:50;15.50;99.90
23703;DHT22;12030;50.376;8.762;2022-10-16T05:32:16;15.50;99.90
23703;DHT22;12030;50.376;8.762;2022-10-16T05:34:42;15.50;99.90
23703;DHT22;12030;50.376;8.762;2022-10-16T05:37:08;15.50;99.90
23703;DHT22;12030;50.376;8.762;2022-10-16T05:39:34;15.50;99.90
23703;DHT22;12030;50.376;8.762;2022-10-16T05:41:59;15.50;99.90
23703;DHT22;12030;50.376;8.762;2022-10-16T05:44:25;15.40;99.90
23703;DHT22;12030;50.376;8.762;2022-10-16T05:46:51;15.50;99.90
23703;DHT22;12030;50.376;8.762;2022-10-16T05:49:16;15.50;99.90
23703;DHT22;12030;50.376;8.762;2022-10-16T05:51:42;15.50;99.90
23703;DHT22;12030;50.376;8.762;2022-10-16T05:54:08;15.50;99.90
23703;DHT22;12030;50.376;8.762;2022-10-16T05:56:33;15.50;99.90
23703;DHT22;12030;50.376;8.762;2022-10-16T05:58:59;15.50;99.90
23703;DHT22;12030;50.376;8.762;2022-10-16T06:01:25;15.50;99.90
23703;DHT22;12030;50.376;8.762;2022-10-16T06:03:51;15.50;99.90
23703;DHT22;12030;50.376;8.762;2022-10-16T06:06:22;15.40;99.90
23703;DHT22;12030;50.376;8.762;2022-10-16T06:08:49;15.50;99.90
23703;DHT22;12030;50.376;8.762;2022-10-16T06:11:18;15.50;99.90
23703;DHT22;12030;50.376;8.762;2022-10-16T06:13:44;15.50;99.90
23703;DHT22;12030;50.376;8.762;2022-10-16T06:16:12;15.50;99.90
23703;DHT22;12030;50.376;8.762;2022-10-16T06:18:38;15.50;99.90
23703;DHT22;12030;50.376;8.762;2022-10-16T06:21:09;15.50;99.90
23703;DHT22;12030;50.376;8.762;2022-10-16T06:23:35;15.50;99.90
23703;DHT22;12030;50.376;8.762;2022-10-16T06:26:08;15.60;99.90
23703;DHT22;12030;50.376;8.762;2022-10-16T06:28:34;15.60;99.90
23703;DHT22;12030;50.376;8.762;2022-10-16T06:31:01;15.60;99.90
23703;DHT22;12030;50.376;8.762;2022-10-16T06:33:27;15.60;99.90
23703;DHT22;12030;50.376;8.762;2022-10-16T06:35:52;15.60;99.90
23703;DHT22;12030;50.376;8.762;2022-10-16T06:38:18;15.60;99.90
23703;DHT22;12030;50.376;8.762;2022-10-16T06:40:43;15.60;99.90
23703;DHT22;12030;50.376;8.762;2022-10-16T06:43:09;15.60;99.90
23703;DHT22;12030;50.376;8.762;2022-10-16T06:45:34;15.70;99.90
23703;DHT22;12030;50.376;8.762;2022-10-16T06:48:00;15.60;99.90
23703;DHT22;12030;50.376;8.762;2022-10-16T06:50:25;15.70;99.90
23703;DHT22;12030;50.376;8.762;2022-10-16T06:52:51;15.70;99.90
23703;DHT22;12030;50.376;8.762;2022-10-16T06:55:16;15.70;99.90
23703;DHT22;12030;50.376;8.762;2022-10-16T06:57:43;15.70;99.90
23703;DHT22;12030;50.376;8.762;2022-10-16T07:00:09;15.70;99.90
23703;DHT22;12030;50.376;8.762;2022-10-16T07:02:35;15.70;99.90
23703;DHT22;12030;50.376;8.762;2022-10-16T07:05:00;15.70;99.90
23703;DHT22;12030;50.376;8.762;2022-10-16T07:07:26;15.70;99.90
23703;DHT22;12030;50.376;8.762;2022-10-16T07:09:52;15.70;99.90
23703;DHT22;12030;50.376;8.762;2022-10-16T07:12:17;15.80;99.90
23703;DHT22;12030;50.376;8.762;2022-10-16T07:14:43;15.80;99.90
23703;DHT22;12030;50.376;8.762;2022-10-16T07:17:09;15.80;99.90
23703;DHT22;12030;50.376;8.762;2022-10-16T07:19:34;15.80;99.90
23703;DHT22;12030;50.376;8.762;2022-10-16T07:22:00;15.70;99.90
23703;DHT22;12030;50.376;8.762;2022-10-16T07:24:26;15.70;99.90
23703;DHT22;12030;50.376;8.762;2022-10-16T07:26:52;15.80;99.90
23703;DHT22;12030;50.376;8.762;2022-10-16T07:29:20;15.70;99.90
23703;DHT22;12030;50.376;8.762;2022-10-16T07:31:46;15.80;99.90
23703;DHT22;12030;50.376;8.762;2022-10-16T07:34:13;15.80;99.90
23703;DHT22;12030;50.376;8.762;2022-10-16T07:36:39;15.80;99.90
23703;DHT22;12030;50.376;8.762;2022-10-16T07:39:04;15.80;99.90
23703;DHT22;12030;50.376;8.762;2022-10-16T07:41:30;15.80;99.90
23703;DHT22;12030;50.376;8.762;2022-10-16T07:43:58;15.90;99.90
23703;DHT22;12030;50.376;8.762;2022-10-16T07:46:26;15.90;99.90
23703;DHT22;12030;50.376;8.762;2022-10-16T07:48:52;15.90;99.90
23703;DHT22;12030;50.376;8.762;2022-10-16T07:51:19;15.90;99.90
23703;DHT22;12030;50.376;8.762;2022-10-16T07:53:46;15.90;99.90
23703;DHT22;12030;50.376;8.762;2022-10-16T07:56:12;15.90;99.90
23703;DHT22;12030;50.376;8.762;2022-10-16T07:58:38;15.90;99.90
23703;DHT22;12030;50.376;8.762;2022-10-16T08:01:06;15.90;99.90
23703;DHT22;12030;50.376;8.762;2022-10-16T08:03:31;15.90;99.90
23703;DHT22;12030;50.376;8.762;2022-10-16T08:05:58;15.90;99.90
23703;DHT22;12030;50.376;8.762;2022-10-16T08:08:24;16.00;99.90
23703;DHT22;12030;50.376;8.762;2022-10-16T08:10:49;16.00;99.90
23703;DHT22;12030;50.376;8.762;2022-10-16T08:13:15;16.00;99.90
23703;DHT22;12030;50.376;8.762;2022-10-16T08:15:42;16.00;99.90
23703;DHT22;12030;50.376;8.762;2022-10-16T08:18:09;16.00;99.90
23703;DHT22;12030;50.376;8.762;2022-10-16T08:20:34;16.00;99.90
23703;DHT22;12030;50.376;8.762;2022-10-16T08:23:00;16.00;99.90
23703;DHT22;12030;50.376;8.762;2022-10-16T08:25:26;16.00;99.90
23703;DHT22;12030;50.376;8.762;2022-10-16T08:27:52;16.10;99.90
23703;DHT22;12030;50.376;8.762;2022-10-16T08:30:19;16.10;99.90
23703;DHT22;12030;50.376;8.762;2022-10-16T08:32:45;16.10;99.90
23703;DHT22;12030;50.376;8.762;2022-10-16T08:35:12;16.10;99.90
23703;DHT22;12030;50.376;8.762;2022-10-16T08:37:38;16.20;99.90
23703;DHT22;12030;50.376;8.762;2022-10-16T08:40:06;16.20;99.90
23703;DHT22;12030;50.376;8.762;2022-10-16T08:48:23;16.30;99.90
23703;DHT22;12030;50.376;8.762;2022-10-16T08:50:51;16.30;99.90
23703;DHT22;12030;50.376;8.762;2022-10-16T08:53:30;16.30;99.90
23703;DHT22;12030;50.376;8.762;2022-10-16T08:55:56;16.40;99.90
23703;DHT22;12030;50.376;8.762;2022-10-16T08:58:28;16.40;99.90
23703;DHT22;12030;50.376;8.762;2022-10-16T09:00:56;16.40;99.90
23703;DHT22;12030;50.376;8.762;2022-10-16T09:09:16;16.60;99.90
23703;DHT22;12030;50.376;8.762;2022-10-16T09:12:02;16.70;99.90
23703;DHT22;12030;50.376;8.762;2022-10-16T09:17:41;16.90;99.90
23703;DHT22;12030;50.376;8.762;2022-10-16T09:20:34;17.00;99.90
23703;DHT22;12030;50.376;8.762;2022-10-16T09:25:29;17.20;99.90
23703;DHT22;12030;50.376;8.762;2022-10-16T09:27:55;17.30;99.90
23703;DHT22;12030;50.376;8.762;2022-10-16T09:30:22;17.30;99.90
23703;DHT22;12030;50.376;8.762;2022-10-16T09:32:50;17.40;99.90
23703;DHT22;12030;50.376;8.762;2022-10-16T09:35:20;17.30;99.90
23703;DHT22;12030;50.376;8.762;2022-10-16T09:37:49;17.30;99.90
23703;DHT22;12030;50.376;8.762;2022-10-16T09:40:33;17.30;99.90
23703;DHT22;12030;50.376;8.762;2022-10-16T09:43:24;17.30;99.90
23703;DHT22;12030;50.376;8.762;2022-10-16T09:45:57;17.50;99.90
23703;DHT22;12030;50.376;8.762;2022-10-16T09:48:59;17.50;99.90
23703;DHT22;12030;50.376;8.762;2022-10-16T09:51:34;17.60;99.90
23703;DHT22;12030;50.376;8.762;2022-10-16T09:56:36;17.60;99.90
23703;DHT22;12030;50.376;8.762;2022-10-16T10:01:41;17.70;99.90
23703;DHT22;12030;50.376;8.762;2022-10-16T10:04:08;17.70;99.90
23703;DHT22;12030;50.376;8.762;2022-10-16T10:06:36;17.70;99.90
23703;DHT22;12030;50.376;8.762;2022-10-16T10:11:49;17.80;99.90
23703;DHT22;12030;50.376;8.762;2022-10-16T10:14:22;17.70;99.90
23703;DHT22;12030;50.376;8.762;2022-10-16T10:16:49;17.60;99.90
23703;DHT22;12030;50.376;8.762;2022-10-16T10:19:20;17.70;99.90
23703;DHT22;12030;50.376;8.762;2022-10-16T10:21:47;17.80;99.90
23703;DHT22;12030;50.376;8.762;2022-10-16T10:24:14;17.80;99.90
23703;DHT22;12030;50.376;8.762;2022-10-16T10:26:54;17.90;99.90
23703;DHT22;12030;50.376;8.762;2022-10-16T10:29:42;17.90;99.90
23703;DHT22;12030;50.376;8.762;2022-10-16T10:32:12;17.80;99.90
23703;DHT22;12030;50.376;8.762;2022-10-16T10:34:50;17.80;99.90
23703;DHT22;12030;50.376;8.762;2022-10-16T10:45:46;17.80;99.90
23703;DHT22;12030;50.376;8.762;2022-10-16T10:48:32;17.80;99.90
23703;DHT22;12030;50.376;8.762;2022-10-16T10:51:05;17.80;99.90
23703;DHT22;12030;50.376;8.762;2022-10-16T10:53:56;17.80;99.90
23703;DHT22;12030;50.376;8.762;2022-10-16T10:56:50;18.00;99.90
23703;DHT22;12030;50.376;8.762;2022-10-16T10:59:40;18.10;99.90
23703;DHT22;12030;50.376;8.762;2022-10-16T11:05:05;18.20;99.90
23703;DHT22;12030;50.376;8.762;2022-10-16T11:07:43;18.30;99.90
23703;DHT22;12030;50.376;8.762;2022-10-16T11:10:16;18.40;99.90
23703;DHT22;12030;50.376;8.762;2022-10-16T11:12:47;18.50;99.90
23703;DHT22;12030;50.376;8.762;2022-10-16T11:15:21;18.60;99.90
23703;DHT22;12030;50.376;8.762;2022-10-16T11:17:59;18.60;99.90
23703;DHT22;12030;50.376;8.762;2022-10-16T11:20:29;18.60;99.90
23703;DHT22;12030;50.376;8.762;2022-10-16T11:23:23;18.60;99.90
23703;DHT22;12030;50.376;8.762;2022-10-16T11:25:50;18.70;99.90
23703;DHT22;12030;50.376;8.762;2022-10-16T11:28:33;18.80;99.90
23703;DHT22;12030;50.376;8.762;2022-10-16T11:33:49;19.00;99.90
23703;DHT22;12030;50.376;8.762;2022-10-16T11:36:34;19.10;99.90
23703;DHT22;12030;50.376;8.762;2022-10-16T11:39:20;19.30;99.90
23703;DHT22;12030;50.376;8.762;2022-10-16T11:42:08;19.40;99.90
23703;DHT22;12030;50.376;8.762;2022-10-16T11:49:59;19.90;99.90
23703;DHT22;12030;50.376;8.762;2022-10-16T11:52:35;19.90;99.90
23703;DHT22;12030;50.376;8.762;2022-10-16T11:55:04;20.00;99.90
23703;DHT22;12030;50.376;8.762;2022-10-16T11:57:35;20.00;99.90
23703;DHT22;12030;50.376;8.762;2022-10-16T12:00:22;20.00;99.90
23703;DHT22;12030;50.376;8.762;2022-10-16T12:08:19;19.80;99.90
23703;DHT22;12030;50.376;8.762;2022-10-16T12:10:47;19.90;99.90
23703;DHT22;12030;50.376;8.762;2022-10-16T12:13:38;20.10;99.90
23703;DHT22;12030;50.376;8.762;2022-10-16T12:16:24;20.20;99.90
23703;DHT22;12030;50.376;8.762;2022-10-16T12:19:07;20.30;99.90
23703;DHT22;12030;50.376;8.762;2022-10-16T12:21:34;20.30;99.90
23703;DHT22;12030;50.376;8.762;2022-10-16T12:24:02;20.30;99.90
23703;DHT22;12030;50.376;8.762;2022-10-16T12:26:32;20.30;99.90
23703;DHT22;12030;50.376;8.762;2022-10-16T12:29:33;20.40;99.90
23703;DHT22;12030;50.376;8.762;2022-10-16T12:31:56;20.40;99.90
23703;DHT22;12030;50.376;8.762;2022-10-16T12:34:39;20.30;99.90
23703;DHT22;12030;50.376;8.762;2022-10-16T12:39:35;20.20;99.90
23703;DHT22;12030;50.376;8.762;2022-10-16T12:42:20;20.00;99.90
23703;DHT22;12030;50.376;8.762;2022-10-16T12:44:46;20.10;99.90
23703;DHT22;12030;50.376;8.762;2022-10-16T12:49:55;20.10;99.90
23703;DHT22;12030;50.376;8.762;2022-10-16T12:52:39;20.20;99.90
23703;DHT22;12030;50.376;8.762;2022-10-16T12:55:14;20.20;99.90
23703;DHT22;12030;50.376;8.762;2022-10-16T13:00:57;20.00;99.90
23703;DHT22;12030;50.376;8.762;2022-10-16T13:03:31;20.00;99.90
23703;DHT22;12030;50.376;8.762;2022-10-16T13:06:08;20.00;99.90
23703;DHT22;12030;50.376;8.762;2022-10-16T13:20:04;19.90;99.90
23703;DHT22;12030;50.376;8.762;2022-10-16T13:28:01;19.80;99.90
23703;DHT22;12030;50.376;8.762;2022-10-16T13:30:29;19.90;99.90
23703;DHT22;12030;50.376;8.762;2022-10-16T13:35:32;20.10;99.90
23703;DHT22;12030;50.376;8.762;2022-10-16T13:40:37;20.10;99.90
23703;DHT22;12030;50.376;8.762;2022-10-16T13:43:12;20.10;99.90
23703;DHT22;12030;50.376;8.762;2022-10-16T13:45:38;20.20;99.90
23703;DHT22;12030;50.376;8.762;2022-10-16T13:48:10;20.20;99.90
23703;DHT22;12030;50.376;8.762;2022-10-16T13:50:37;20.10;99.90
23703;DHT22;12030;50.376;8.762;2022-10-16T13:53:07;20.10;99.90
23703;DHT22;12030;50.376;8.762;2022-10-16T13:55:37;20.10;99.90
23703;DHT22;12030;50.376;8.762;2022-10-16T13:58:08;20.10;99.90
23703;DHT22;12030;50.376;8.762;2022-10-16T14:00:37;20.10;99.90
23703;DHT22;12030;50.376;8.762;2022-10-16T14:03:05;20.20;99.90
23703;DHT22;12030;50.376;8.762;2022-10-16T14:05:32;20.20;99.90
23703;DHT22;12030;50.376;8.762;2022-10-16T14:07:58;20.00;99.90
23703;DHT22;12030;50.376;8.762;2022-10-16T14:10:31;19.90;99.90
23703;DHT22;12030;50.376;8.762;2022-10-16T14:13:03;19.90;99.90
23703;DHT22;12030;50.376;8.762;2022-10-16T14:15:31;19.80;99.90
23703;DHT22;12030;50.376;8.762;2022-10-16T14:17:57;19.80;99.90
23703;DHT22;12030;50.376;8.762;2022-10-16T14:20:28;19.70;99.90
23703;DHT22;12030;50.376;8.762;2022-10-16T14:23:38;19.60;99.90
23703;DHT22;12030;50.376;8.762;2022-10-16T14:28:38;19.50;99.90
23703;DHT22;12030;50.376;8.762;2022-10-16T14:31:23;19.50;99.90
23703;DHT22;12030;50.376;8.762;2022-10-16T14:33:49;19.50;99.90
23703;DHT22;12030;50.376;8.762;2022-10-16T14:36:16;19.50;99.90
23703;DHT22;12030;50.376;8.762;2022-10-16T14:39:14;19.50;99.90
23703;DHT22;12030;50.376;8.762;2022-10-16T14:41:46;19.60;99.90
23703;DHT22;12030;50.376;8.762;2022-10-16T14:44:12;19.40;99.90
23703;DHT22;12030;50.376;8.762;2022-10-16T14:46:40;19.50;99.90
23703;DHT22;12030;50.376;8.762;2022-10-16T14:51:36;19.40;99.90
23703;DHT22;12030;50.376;8.762;2022-10-16T14:54:02;19.50;99.90
23703;DHT22;12030;50.376;8.762;2022-10-16T14:56:54;19.40;99.90
23703;DHT22;12030;50.376;8.762;2022-10-16T14:59:30;19.50;99.90
23703;DHT22;12030;50.376;8.762;2022-10-16T15:01:57;19.50;99.90
23703;DHT22;12030;50.376;8.762;2022-10-16T15:04:23;19.50;99.90
23703;DHT22;12030;50.376;8.762;2022-10-16T15:06:49;19.50;99.90
23703;DHT22;12030;50.376;8.762;2022-10-16T15:09:14;19.50;99.90
23703;DHT22;12030;50.376;8.762;2022-10-16T15:11:41;19.40;99.90
23703;DHT22;12030;50.376;8.762;2022-10-16T15:14:13;19.40;99.90
23703;DHT22;12030;50.376;8.762;2022-10-16T15:16:39;19.40;99.90
23703;DHT22;12030;50.376;8.762;2022-10-16T15:19:04;19.40;99.90
23703;DHT22;12030;50.376;8.762;2022-10-16T15:21:31;19.40;99.90
23703;DHT22;12030;50.376;8.762;2022-10-16T15:23:58;19.40;99.90
23703;DHT22;12030;50.376;8.762;2022-10-16T15:26:25;19.50;99.90
23703;DHT22;12030;50.376;8.762;2022-10-16T15:28:51;19.60;99.90
23703;DHT22;12030;50.376;8.762;2022-10-16T15:31:17;19.60;99.90
23703;DHT22;12030;50.376;8.762;2022-10-16T15:33:43;19.40;99.90
23703;DHT22;12030;50.376;8.762;2022-10-16T15:36:08;19.40;99.90
23703;DHT22;12030;50.376;8.762;2022-10-16T15:38:34;19.30;99.90
23703;DHT22;12030;50.376;8.762;2022-10-16T15:41:00;19.10;99.90
23703;DHT22;12030;50.376;8.762;2022-10-16T15:43:25;19.00;99.90
23703;DHT22;12030;50.376;8.762;2022-10-16T15:46:05;18.90;99.90
23703;DHT22;12030;50.376;8.762;2022-10-16T15:48:32;18.80;99.90
23703;DHT22;12030;50.376;8.762;2022-10-16T15:50:57;18.70;99.90
23703;DHT22;12030;50.376;8.762;2022-10-16T15:53:23;18.60;99.90
23703;DHT22;12030;50.376;8.762;2022-10-16T15:55:49;18.60;99.90
23703;DHT22;12030;50.376;8.762;2022-10-16T15:58:14;18.60;99.90
23703;DHT22;12030;50.376;8.762;2022-10-16T16:00:40;18.60;99.90
23703;DHT22;12030;50.376;8.762;2022-10-16T16:03:05;18.50;99.90
23703;DHT22;12030;50.376;8.762;2022-10-16T16:05:31;18.50;99.90
23703;DHT22;12030;50.376;8.762;2022-10-16T16:07:58;18.40;99.90
23703;DHT22;12030;50.376;8.762;2022-10-16T16:10:24;18.40;99.90
23703;DHT22;12030;50.376;8.762;2022-10-16T16:12:50;18.40;99.90
23703;DHT22;12030;50.376;8.762;2022-10-16T16:15:19;18.30;99.90
23703;DHT22;12030;50.376;8.762;2022-10-16T16:17:45;18.30;99.90
23703;DHT22;12030;50.376;8.762;2022-10-16T16:20:11;18.20;99.90
23703;DHT22;12030;50.376;8.762;2022-10-16T16:22:37;18.20;99.90
23703;DHT22;12030;50.376;8.762;2022-10-16T16:25:03;18.10;99.90
23703;DHT22;12030;50.376;8.762;2022-10-16T16:27:29;18.10;99.90
23703;DHT22;12030;50.376;8.762;2022-10-16T16:29:58;18.10;99.90
23703;DHT22;12030;50.376;8.762;2022-10-16T16:32:23;18.00;99.90
23703;DHT22;12030;50.376;8.762;2022-10-16T16:34:49;17.90;99.90
23703;DHT22;12030;50.376;8.762;2022-10-16T16:37:14;17.90;99.90
23703;DHT22;12030;50.376;8.762;2022-10-16T16:39:40;17.90;99.90
23703;DHT22;12030;50.376;8.762;2022-10-16T16:42:06;17.90;99.90
23703;DHT22;12030;50.376;8.762;2022-10-16T16:44:33;17.80;99.90
23703;DHT22;12030;50.376;8.762;2022-10-16T16:47:01;17.80;99.90
23703;DHT22;12030;50.376;8.762;2022-10-16T16:49:27;17.90;99.90
23703;DHT22;12030;50.376;8.762;2022-10-16T16:51:53;17.80;99.90
23703;DHT22;12030;50.376;8.762;2022-10-16T16:54:19;17.80;99.90
23703;DHT22;12030;50.376;8.762;2022-10-16T16:56:45;17.80;99.90
23703;DHT22;12030;50.376;8.762;2022-10-16T16:59:16;17.70;99.90
23703;DHT22;12030;50.376;8.762;2022-10-16T17:01:43;17.70;99.90
23703;DHT22;12030;50.376;8.762;2022-10-16T17:04:09;17.70;99.90
23703;DHT22;12030;50.376;8.762;2022-10-16T17:06:35;17.60;99.90
23703;DHT22;12030;50.376;8.762;2022-10-16T17:09:04;17.60;99.90
23703;DHT22;12030;50.376;8.762;2022-10-16T17:11:30;17.50;99.90
23703;DHT22;12030;50.376;8.762;2022-10-16T17:13:57;17.50;99.90
23703;DHT22;12030;50.376;8.762;2022-10-16T17:16:29;17.50;99.90
23703;DHT22;12030;50.376;8.762;2022-10-16T17:18:58;17.50;99.90
23703;DHT22;12030;50.376;8.762;2022-10-16T17:21:23;17.50;99.90